createdAt,value
2017-12-25T00:02:16.290Z,7.30
2017-12-25T00:04:44.586Z,7.30
2017-12-25T00:07:13.663Z,7.40
2017-12-25T00:09:41.466Z,7.10
2017-12-25T00:12:10.333Z,6.80
2017-12-25T00:14:37.863Z,6.70
2017-12-25T00:17:07.003Z,6.70
2017-12-25T00:19:34.657Z,6.60
2017-12-25T00:22:02.931Z,6.90
2017-12-25T00:24:31.239Z,7.00
2017-12-25T00:26:59.538Z,7.00
2017-12-25T00:29:27.853Z,7.00
2017-12-25T00:31:55.369Z,7.20
2017-12-25T00:34:23.303Z,7.00
2017-12-25T00:36:51.638Z,6.80
2017-12-25T00:39:19.965Z,6.70
2017-12-25T00:41:48.234Z,6.50
2017-12-25T00:44:16.565Z,6.40
2017-12-25T00:46:44.100Z,6.70
2017-12-25T00:49:12.453Z,6.90
2017-12-25T00:51:40.745Z,7.10
2017-12-25T00:54:09.059Z,7.20
2017-12-25T00:56:37.340Z,7.20
2017-12-25T00:59:05.621Z,6.80
2017-12-25T01:01:33.149Z,6.60
2017-12-25T01:04:01.069Z,6.60
2017-12-25T01:06:30.140Z,6.60
2017-12-25T01:08:57.648Z,6.70
2017-12-25T01:11:26.059Z,6.80
2017-12-25T01:13:55.097Z,6.50
2017-12-25T01:16:22.935Z,6.50
2017-12-25T01:18:51.933Z,6.70
2017-12-25T01:21:20.454Z,6.70
2017-12-25T01:23:48.382Z,6.80
2017-12-25T01:26:16.347Z,6.60
2017-12-25T01:28:44.876Z,6.20
2017-12-25T01:31:12.804Z,6.00
2017-12-25T01:33:40.335Z,5.80
2017-12-25T01:36:09.537Z,6.10
2017-12-25T01:38:37.813Z,6.40
2017-12-25T01:41:05.365Z,6.50
2017-12-25T01:43:33.268Z,6.60
2017-12-25T01:46:01.574Z,6.90
2017-12-25T01:48:30.593Z,7.20
2017-12-25T01:50:58.703Z,7.10
2017-12-25T01:53:26.617Z,7.20
2017-12-25T01:55:55.029Z,7.30
2017-12-25T01:58:42.006Z,7.20
2017-12-25T02:04:11.358Z,7.10
2017-12-25T02:06:50.755Z,7.20
2017-12-25T02:09:18.293Z,7.20
2017-12-25T02:11:46.986Z,7.00
2017-12-25T02:14:14.624Z,7.20
2017-12-25T02:16:43.144Z,7.00
2017-12-25T02:19:11.456Z,6.80
2017-12-25T02:21:39.782Z,6.70
2017-12-25T02:24:08.087Z,6.50
2017-12-25T02:26:36.402Z,6.70
2017-12-25T02:29:04.698Z,6.80
2017-12-25T02:31:33.023Z,6.90
2017-12-25T02:34:01.450Z,7.00
2017-12-25T02:36:29.799Z,6.70
2017-12-25T02:38:58.106Z,6.60
2017-12-25T02:41:26.439Z,6.80
2017-12-25T02:43:54.743Z,6.90
2017-12-25T02:46:23.059Z,6.90
2017-12-25T02:48:50.592Z,6.80
2017-12-25T02:51:18.525Z,6.80
2017-12-25T02:53:46.941Z,6.60
2017-12-25T02:56:15.248Z,6.60
2017-12-25T02:58:43.562Z,6.70
2017-12-25T03:01:11.863Z,6.90
2017-12-25T03:03:40.251Z,6.90
2017-12-25T03:06:08.562Z,7.00
2017-12-25T03:08:36.887Z,6.90
2017-12-25T03:11:05.290Z,6.80
2017-12-25T03:13:34.362Z,6.60
2017-12-25T03:16:01.997Z,6.10
2017-12-25T03:18:30.376Z,6.30
2017-12-25T03:20:58.684Z,6.40
2017-12-25T03:23:27.025Z,6.00
2017-12-25T03:25:55.410Z,6.10
2017-12-25T03:28:23.922Z,6.30
2017-12-25T03:30:52.225Z,6.40
2017-12-25T03:33:20.559Z,6.40
2017-12-25T03:35:48.869Z,6.20
2017-12-25T03:38:17.198Z,6.20
2017-12-25T03:40:45.127Z,6.30
2017-12-25T03:43:13.515Z,6.40
2017-12-25T03:45:41.822Z,6.50
2017-12-25T03:48:09.376Z,6.60
2017-12-25T03:50:37.678Z,6.70
2017-12-25T03:53:06.176Z,6.70
2017-12-25T03:55:34.116Z,6.70
2017-12-25T03:58:02.447Z,6.70
2017-12-25T04:00:30.742Z,6.70
2017-12-25T04:02:58.348Z,6.70
2017-12-25T04:05:26.292Z,6.60
2017-12-25T04:07:54.615Z,6.60
2017-12-25T04:10:22.929Z,6.60
2017-12-25T04:12:51.253Z,6.40
2017-12-25T04:15:20.372Z,6.00
2017-12-25T04:17:47.939Z,6.00
2017-12-25T04:20:16.270Z,5.80
2017-12-25T04:22:44.636Z,5.60
2017-12-25T04:25:13.032Z,5.60
2017-12-25T04:27:41.338Z,5.60
2017-12-25T04:30:10.408Z,5.70
2017-12-25T04:32:37.946Z,5.70
2017-12-25T04:35:06.324Z,5.80
2017-12-25T04:37:34.719Z,6.00
2017-12-25T04:40:03.061Z,6.20
2017-12-25T04:42:31.378Z,6.00
2017-12-25T04:44:59.703Z,5.80
2017-12-25T04:47:27.998Z,5.90
2017-12-25T04:49:55.561Z,5.90
2017-12-25T04:52:23.498Z,5.80
2017-12-25T04:54:51.828Z,6.10
2017-12-25T04:57:20.143Z,6.30
2017-12-25T04:59:48.506Z,6.20
2017-12-25T05:02:16.816Z,6.30
2017-12-25T05:04:45.152Z,6.30
2017-12-25T05:07:13.459Z,6.50
2017-12-25T05:09:41.843Z,6.60
2017-12-25T05:12:10.148Z,6.30
2017-12-25T05:14:38.572Z,6.30
2017-12-25T05:17:06.879Z,6.30
2017-12-25T05:19:35.227Z,6.10
2017-12-25T05:22:03.528Z,5.90
2017-12-25T05:24:31.885Z,5.80
2017-12-25T05:27:00.182Z,6.00
2017-12-25T05:29:28.571Z,5.80
2017-12-25T05:31:56.102Z,5.80
2017-12-25T05:34:24.136Z,5.70
2017-12-25T05:36:52.441Z,5.60
2017-12-25T05:39:20.738Z,5.60
2017-12-25T05:41:49.223Z,5.60
2017-12-25T05:44:17.640Z,5.70
2017-12-25T05:46:45.592Z,5.70
2017-12-25T05:49:14.636Z,5.70
2017-12-25T05:51:42.200Z,5.60
2017-12-25T05:54:09.739Z,5.60
2017-12-25T05:56:37.710Z,5.60
2017-12-25T05:59:06.020Z,5.40
2017-12-25T06:01:33.703Z,5.50
2017-12-25T06:04:01.252Z,5.40
2017-12-25T06:06:29.601Z,5.40
2017-12-25T06:08:57.134Z,5.30
2017-12-25T06:11:25.097Z,5.50
2017-12-25T06:13:53.413Z,5.90
2017-12-25T06:16:21.796Z,6.00
2017-12-25T06:18:50.100Z,5.90
2017-12-25T06:21:18.435Z,5.90
2017-12-25T06:23:46.739Z,5.90
2017-12-25T06:26:15.063Z,6.00
2017-12-25T06:28:43.368Z,6.10
2017-12-25T06:31:10.927Z,6.00
2017-12-25T06:33:38.863Z,5.70
2017-12-25T06:36:07.196Z,5.90
2017-12-25T06:38:35.495Z,6.10
2017-12-25T06:41:04.556Z,6.20
2017-12-25T06:43:32.115Z,6.10
2017-12-25T06:46:00.435Z,5.70
2017-12-25T06:48:28.764Z,5.90
2017-12-25T06:50:57.151Z,5.80
2017-12-25T06:53:25.449Z,5.90
2017-12-25T06:55:53.005Z,5.90
2017-12-25T06:58:20.942Z,5.80
2017-12-25T07:00:49.257Z,5.90
2017-12-25T07:03:17.579Z,6.00
2017-12-25T07:05:45.953Z,5.90
2017-12-25T07:08:14.402Z,5.70
2017-12-25T07:10:43.448Z,5.80
2017-12-25T07:13:11.016Z,6.00
2017-12-25T07:15:39.360Z,5.80
2017-12-25T07:18:07.780Z,5.60
2017-12-25T07:20:36.088Z,5.80
2017-12-25T07:23:04.419Z,5.90
2017-12-25T07:25:32.820Z,5.80
2017-12-25T07:28:01.531Z,5.80
2017-12-25T07:30:29.468Z,5.90
2017-12-25T07:32:57.842Z,6.00
2017-12-25T07:35:26.139Z,6.10
2017-12-25T07:37:54.459Z,6.20
2017-12-25T07:40:22.879Z,6.00
2017-12-25T07:42:51.204Z,5.70
2017-12-25T07:45:20.242Z,5.80
2017-12-25T07:47:47.812Z,5.50
2017-12-25T07:50:16.116Z,5.60
2017-12-25T07:52:44.568Z,5.60
2017-12-25T07:55:12.874Z,5.50
2017-12-25T07:57:41.225Z,5.40
2017-12-25T08:00:09.736Z,5.20
2017-12-25T08:02:38.821Z,5.30
2017-12-25T08:05:06.373Z,5.30
2017-12-25T08:07:34.801Z,5.40
2017-12-25T08:10:03.099Z,5.50
2017-12-25T08:12:31.430Z,5.30
2017-12-25T08:14:59.745Z,5.30
2017-12-25T08:17:28.070Z,5.30
2017-12-25T08:19:56.396Z,5.50
2017-12-25T08:22:24.719Z,5.40
2017-12-25T08:24:53.083Z,5.50
2017-12-25T08:27:21.419Z,5.50
2017-12-25T08:29:49.842Z,5.30
2017-12-25T08:32:18.135Z,5.20
2017-12-25T08:34:46.452Z,5.30
2017-12-25T08:37:14.820Z,5.40
2017-12-25T08:39:43.135Z,5.60
2017-12-25T08:42:11.439Z,5.70
2017-12-25T08:44:39.546Z,5.90
2017-12-25T08:47:07.075Z,5.80
2017-12-25T08:49:35.040Z,5.60
2017-12-25T08:52:03.407Z,5.60
2017-12-25T08:54:31.727Z,5.70
2017-12-25T08:57:00.034Z,5.60
2017-12-25T08:59:27.609Z,5.80
2017-12-25T09:01:55.552Z,6.00
2017-12-25T09:04:23.871Z,6.10
2017-12-25T09:06:52.270Z,6.20
2017-12-25T09:09:20.595Z,6.20
2017-12-25T09:11:48.908Z,6.30
2017-12-25T09:14:17.227Z,6.30
2017-12-25T09:16:45.561Z,6.40
2017-12-25T09:19:13.891Z,6.60
2017-12-25T09:21:42.191Z,6.70
2017-12-25T09:24:10.523Z,6.90
2017-12-25T09:26:39.579Z,6.90
2017-12-25T09:29:07.139Z,6.90
2017-12-25T09:31:35.518Z,7.00
2017-12-25T09:34:04.028Z,6.80
2017-12-25T09:36:32.446Z,6.50
2017-12-25T09:39:00.759Z,6.50
2017-12-25T09:41:29.056Z,6.40
2017-12-25T09:43:57.471Z,6.20
2017-12-25T09:46:25.783Z,5.90
2017-12-25T09:48:54.080Z,5.90
2017-12-25T09:51:22.398Z,5.80
2017-12-25T09:53:50.723Z,5.90
2017-12-25T09:56:19.148Z,6.60
2017-12-25T09:58:47.450Z,8.00
2017-12-25T10:01:15.775Z,9.30
2017-12-25T10:03:44.086Z,10.20
2017-12-25T10:06:12.513Z,10.70
2017-12-25T10:08:40.969Z,10.80
2017-12-25T10:11:09.296Z,11.30
2017-12-25T10:13:37.629Z,11.80
2017-12-25T10:16:05.952Z,11.90
2017-12-25T10:18:34.262Z,12.30
2017-12-25T10:21:02.272Z,12.70
2017-12-25T10:23:30.583Z,12.90
2017-12-25T10:25:58.167Z,13.20
2017-12-25T10:28:26.115Z,13.30
2017-12-25T10:30:54.449Z,13.60
2017-12-25T10:33:22.742Z,13.40
2017-12-25T10:35:51.080Z,13.30
2017-12-25T10:38:19.379Z,13.40
2017-12-25T10:40:46.943Z,13.80
2017-12-25T10:43:15.614Z,14.10
2017-12-25T10:45:43.179Z,13.90
2017-12-25T10:48:11.487Z,14.20
2017-12-25T10:50:39.806Z,14.30
2017-12-25T10:53:08.222Z,13.90
2017-12-25T10:55:36.552Z,13.40
2017-12-25T10:58:04.857Z,12.80
2017-12-25T11:00:38.951Z,12.40
2017-12-25T11:03:07.259Z,11.90
2017-12-25T11:05:35.586Z,11.90
2017-12-25T11:08:03.882Z,11.70
2017-12-25T11:10:32.211Z,11.50
2017-12-25T11:13:00.646Z,11.80
2017-12-25T11:15:28.976Z,12.40
2017-12-25T11:17:57.289Z,12.80
2017-12-25T11:20:25.627Z,12.90
2017-12-25T11:22:54.678Z,12.60
2017-12-25T11:25:22.985Z,12.40
2017-12-25T11:27:50.557Z,12.30
2017-12-25T11:30:18.879Z,12.20
2017-12-25T11:32:47.199Z,12.10
2017-12-25T11:35:15.554Z,12.20
2017-12-25T11:37:43.874Z,12.10
2017-12-25T11:40:12.186Z,12.10
2017-12-25T11:42:40.151Z,12.60
2017-12-25T11:45:07.918Z,12.90
2017-12-25T11:47:35.878Z,13.10
2017-12-25T11:50:04.181Z,12.90
2017-12-25T11:52:32.591Z,13.00
2017-12-25T11:55:00.911Z,13.40
2017-12-25T11:57:29.250Z,13.80
2017-12-25T11:59:57.620Z,14.10
2017-12-25T12:02:25.318Z,14.20
2017-12-25T12:04:52.864Z,13.90
2017-12-25T12:07:20.428Z,14.10
2017-12-25T12:09:48.416Z,14.60
2017-12-25T12:12:17.587Z,14.80
2017-12-25T12:14:45.196Z,14.90
2017-12-25T12:17:13.611Z,15.00
2017-12-25T12:19:41.983Z,15.30
2017-12-25T12:22:09.538Z,15.10
2017-12-25T12:24:37.078Z,15.20
2017-12-25T12:27:05.412Z,15.80
2017-12-25T12:29:33.020Z,16.10
2017-12-25T12:32:01.014Z,15.90
2017-12-25T12:34:29.402Z,15.90
2017-12-25T12:36:57.788Z,16.20
2017-12-25T12:39:26.087Z,16.30
2017-12-25T12:41:55.155Z,16.40
2017-12-25T12:44:22.697Z,16.10
2017-12-25T12:46:50.247Z,15.70
2017-12-25T12:49:18.218Z,15.50
2017-12-25T12:51:46.551Z,15.90
2017-12-25T12:54:14.999Z,16.40
2017-12-25T12:56:43.306Z,16.20
2017-12-25T12:59:12.376Z,16.60
2017-12-25T13:01:40.024Z,16.90
2017-12-25T13:04:08.344Z,17.60
2017-12-25T13:06:36.658Z,18.00
2017-12-25T13:09:04.982Z,18.00
2017-12-25T13:11:32.554Z,18.00
2017-12-25T13:14:00.519Z,17.90
2017-12-25T13:16:28.831Z,18.10
2017-12-25T13:18:57.155Z,18.70
2017-12-25T13:21:25.463Z,18.60
2017-12-25T13:23:53.895Z,18.90
2017-12-25T13:26:22.499Z,19.10
2017-12-25T13:28:50.465Z,19.50
2017-12-25T13:31:18.771Z,19.40
2017-12-25T13:33:47.205Z,19.20
2017-12-25T13:36:15.510Z,19.50
2017-12-25T13:38:43.836Z,19.60
2017-12-25T13:41:13.507Z,19.50
2017-12-25T13:43:41.832Z,19.20
2017-12-25T13:46:10.280Z,19.20
2017-12-25T13:48:38.621Z,19.30
2017-12-25T13:51:06.940Z,19.20
2017-12-25T13:53:35.307Z,19.00
2017-12-25T13:56:03.611Z,18.50
2017-12-25T13:58:31.197Z,18.50
2017-12-25T14:00:59.152Z,18.50
2017-12-25T14:03:27.466Z,18.60
2017-12-25T14:05:55.802Z,18.30
2017-12-25T14:08:24.101Z,18.50
2017-12-25T14:10:52.532Z,18.50
2017-12-25T14:13:20.862Z,18.50
2017-12-25T14:15:49.183Z,18.50
2017-12-25T14:18:18.231Z,18.60
2017-12-25T14:20:45.790Z,18.90
2017-12-25T14:23:14.217Z,18.90
2017-12-25T14:25:42.550Z,19.00
2017-12-25T14:28:10.855Z,18.60
2017-12-25T14:30:39.182Z,18.30
2017-12-25T14:33:07.482Z,18.30
2017-12-25T14:35:35.868Z,17.90
2017-12-25T14:38:04.181Z,17.70
2017-12-25T14:40:33.251Z,16.50
2017-12-25T14:43:01.376Z,15.90
2017-12-25T14:45:29.398Z,15.40
2017-12-25T14:47:57.338Z,14.80
2017-12-25T14:50:24.950Z,14.30
2017-12-25T14:52:52.879Z,13.70
2017-12-25T14:55:21.207Z,13.10
2017-12-25T14:57:49.517Z,12.90
2017-12-25T15:00:17.846Z,12.60
2017-12-25T15:02:46.898Z,12.50
2017-12-25T15:05:14.469Z,12.20
2017-12-25T15:07:42.771Z,12.20
2017-12-25T15:10:10.331Z,12.00
2017-12-25T15:12:37.952Z,11.90
2017-12-25T15:15:05.509Z,11.70
2017-12-25T15:17:33.442Z,11.50
2017-12-25T15:20:01.768Z,11.30
2017-12-25T15:22:30.078Z,11.20
2017-12-25T15:24:58.514Z,11.00
2017-12-25T15:27:26.940Z,10.90
2017-12-25T15:29:55.261Z,10.70
2017-12-25T15:32:23.595Z,10.60
2017-12-25T15:34:51.925Z,10.50
2017-12-25T15:37:20.259Z,10.40
2017-12-25T15:39:48.568Z,10.30
2017-12-25T15:42:16.892Z,10.20
2017-12-25T15:44:45.206Z,10.00
2017-12-25T15:47:13.646Z,10.00
2017-12-25T15:49:41.946Z,9.80
2017-12-25T15:52:10.267Z,9.80
2017-12-25T15:54:38.603Z,9.60
2017-12-25T15:57:06.923Z,9.50
2017-12-25T15:59:35.303Z,9.40
2017-12-25T16:02:03.625Z,9.20
2017-12-25T16:04:32.667Z,9.10
2017-12-25T16:07:00.235Z,9.10
2017-12-25T16:09:28.612Z,9.00
2017-12-25T16:11:56.938Z,8.80
2017-12-25T16:14:25.243Z,8.70
2017-12-25T16:16:53.646Z,8.70
2017-12-25T16:19:22.025Z,8.60
2017-12-25T16:21:50.338Z,8.50
2017-12-25T16:24:18.650Z,8.50
2017-12-25T16:26:47.059Z,8.30
2017-12-25T16:29:15.356Z,8.30
2017-12-25T16:31:43.673Z,8.20
2017-12-25T16:34:11.988Z,8.10
2017-12-25T16:36:40.307Z,8.00
2017-12-25T16:39:07.847Z,8.00
2017-12-25T16:41:35.834Z,8.00
2017-12-25T16:44:04.877Z,7.90
2017-12-25T16:46:32.434Z,7.90
2017-12-25T16:49:00.739Z,7.90
2017-12-25T16:51:29.105Z,7.80
2017-12-25T16:53:57.435Z,7.70
2017-12-25T16:56:25.760Z,7.60
2017-12-25T16:58:54.098Z,7.50
2017-12-25T17:01:22.397Z,7.50
2017-12-25T17:03:50.718Z,7.50
2017-12-25T17:06:19.029Z,7.30
2017-12-25T17:08:47.450Z,7.30
2017-12-25T17:11:15.751Z,7.30
2017-12-25T17:13:43.311Z,7.20
2017-12-25T17:16:11.242Z,7.10
2017-12-25T17:18:39.570Z,7.10
2017-12-25T17:21:07.882Z,7.10
2017-12-25T17:23:36.208Z,7.00
2017-12-25T17:26:04.522Z,7.00
2017-12-25T17:28:32.851Z,7.00
2017-12-25T17:31:01.168Z,6.90
2017-12-25T17:33:29.493Z,6.90
2017-12-25T17:35:57.793Z,6.90
2017-12-25T17:38:26.149Z,6.90
2017-12-25T17:40:54.655Z,6.90
2017-12-25T17:43:23.085Z,6.90
2017-12-25T17:45:51.386Z,6.80
2017-12-25T17:48:19.711Z,6.80
2017-12-25T17:50:48.754Z,6.60
2017-12-25T17:53:16.421Z,6.50
2017-12-25T17:55:44.732Z,6.50
2017-12-25T17:58:13.053Z,6.40
2017-12-25T18:00:41.455Z,6.30
2017-12-25T18:03:09.783Z,6.30
2017-12-25T18:05:38.086Z,6.40
2017-12-25T18:08:06.393Z,6.30
2017-12-25T18:10:34.723Z,6.30
2017-12-25T18:13:03.041Z,6.30
2017-12-25T18:15:31.364Z,6.20
2017-12-25T18:18:00.411Z,6.20
2017-12-25T18:20:27.975Z,6.10
2017-12-25T18:22:56.399Z,6.10
2017-12-25T18:25:24.692Z,6.10
2017-12-25T18:27:53.005Z,6.10
2017-12-25T18:30:21.314Z,8.00
2017-12-25T18:32:48.858Z,9.40
2017-12-25T18:35:16.818Z,10.30
2017-12-25T18:37:45.135Z,10.90
2017-12-25T18:40:14.213Z,10.70
2017-12-25T18:42:42.527Z,10.10
2017-12-25T18:45:10.939Z,9.20
2017-12-25T18:47:38.887Z,8.60
2017-12-25T18:50:06.833Z,7.90
2017-12-25T18:52:35.893Z,7.50
2017-12-25T18:55:03.455Z,7.10
2017-12-25T18:57:31.808Z,6.80
2017-12-25T19:00:00.131Z,6.90
2017-12-25T19:02:28.567Z,6.80
2017-12-25T19:04:56.904Z,6.60
2017-12-25T19:07:25.330Z,6.40
2017-12-25T19:09:53.666Z,6.20
2017-12-25T19:12:22.026Z,6.20
2017-12-25T19:14:51.090Z,6.00
2017-12-25T19:17:18.736Z,5.90
2017-12-25T19:19:47.121Z,6.00
2017-12-25T19:22:15.526Z,5.90
2017-12-25T19:24:43.902Z,5.70
2017-12-25T19:27:11.903Z,5.60
2017-12-25T19:29:40.219Z,5.70
2017-12-25T19:32:07.770Z,5.60
2017-12-25T19:34:35.709Z,5.60
2017-12-25T19:37:04.126Z,5.50
2017-12-25T19:39:32.482Z,5.50
2017-12-25T19:42:00.798Z,5.40
2017-12-25T19:44:29.110Z,5.30
2017-12-25T19:46:57.541Z,5.20
2017-12-25T19:49:25.846Z,5.10
2017-12-25T19:51:54.238Z,5.20
2017-12-25T19:54:23.288Z,5.20
2017-12-25T19:56:50.890Z,5.30
2017-12-25T19:59:20.003Z,5.30
2017-12-25T20:01:48.378Z,5.20
2017-12-25T20:04:16.696Z,5.10
2017-12-25T20:06:44.307Z,5.20
2017-12-25T20:09:13.402Z,5.20
2017-12-25T20:11:41.013Z,5.30
2017-12-25T20:14:09.365Z,5.30
2017-12-25T20:16:37.759Z,5.30
2017-12-25T20:19:06.117Z,5.30
2017-12-25T20:21:34.482Z,5.30
2017-12-25T20:24:02.786Z,5.20
2017-12-25T20:26:31.158Z,5.10
2017-12-25T20:28:59.521Z,5.10
2017-12-25T20:31:27.909Z,5.00
2017-12-25T20:33:56.434Z,4.90
2017-12-25T20:36:24.398Z,4.90
2017-12-25T20:38:52.001Z,4.80
2017-12-25T20:41:19.998Z,4.70
2017-12-25T20:43:48.355Z,4.80
2017-12-25T20:46:17.478Z,4.80
2017-12-25T20:48:45.069Z,4.70
2017-12-25T20:51:13.175Z,4.60
2017-12-25T20:53:42.276Z,4.60
2017-12-25T20:56:09.899Z,4.80
2017-12-25T20:58:38.255Z,4.80
2017-12-25T21:01:06.622Z,4.70
2017-12-25T21:03:35.016Z,4.70
2017-12-25T21:06:03.398Z,4.70
2017-12-25T21:08:31.779Z,4.60
2017-12-25T21:10:59.751Z,4.60
2017-12-25T21:13:28.495Z,4.60
2017-12-25T21:15:56.516Z,4.50
2017-12-25T21:18:24.839Z,4.60
2017-12-25T21:20:53.206Z,4.70
2017-12-25T21:23:20.817Z,4.70
2017-12-25T21:25:49.175Z,4.80
2017-12-25T21:28:17.569Z,4.70
2017-12-25T21:30:45.152Z,4.70
2017-12-25T21:33:13.631Z,4.60
2017-12-25T21:35:42.003Z,4.50
2017-12-25T21:38:10.386Z,4.50
2017-12-25T21:40:38.754Z,4.60
2017-12-25T21:43:07.140Z,4.60
2017-12-25T21:45:35.522Z,4.70
2017-12-25T21:48:03.842Z,4.70
2017-12-25T21:50:32.205Z,4.50
2017-12-25T21:53:00.583Z,4.50
2017-12-25T21:55:28.635Z,4.40
2017-12-25T21:57:57.068Z,4.30
2017-12-25T22:00:25.488Z,4.30
2017-12-25T22:02:53.880Z,4.40
2017-12-25T22:05:22.183Z,4.40
2017-12-25T22:07:50.572Z,4.40
2017-12-25T22:10:18.941Z,4.50
2017-12-25T22:12:47.301Z,4.50
2017-12-25T22:15:15.318Z,4.40
2017-12-25T22:17:43.728Z,4.30
2017-12-25T22:20:11.345Z,4.20
2017-12-25T22:22:39.713Z,3.90
2017-12-25T22:25:07.329Z,4.00
2017-12-25T22:27:35.709Z,3.80
2017-12-25T22:30:04.101Z,3.90
2017-12-25T22:32:32.572Z,4.00
2017-12-25T22:35:00.946Z,4.20
2017-12-25T22:37:29.455Z,4.20
2017-12-25T22:39:57.476Z,4.30
2017-12-25T22:42:25.830Z,4.30
2017-12-25T22:44:54.225Z,4.30
2017-12-25T22:47:22.587Z,4.30
2017-12-25T22:49:51.107Z,4.20
2017-12-25T22:52:19.546Z,4.20
2017-12-25T22:54:47.669Z,4.10
2017-12-25T22:57:16.131Z,4.10
2017-12-25T22:59:44.512Z,4.20
2017-12-25T23:02:12.889Z,4.20
2017-12-25T23:04:40.856Z,4.20
2017-12-25T23:07:08.449Z,4.20
2017-12-25T23:09:36.467Z,4.00
2017-12-25T23:12:04.813Z,4.00
2017-12-25T23:14:33.198Z,4.10
2017-12-25T23:17:02.301Z,4.20
2017-12-25T23:19:30.693Z,4.20
2017-12-25T23:21:59.063Z,4.20
2017-12-25T23:24:27.424Z,4.20
2017-12-25T23:26:55.018Z,4.20
2017-12-25T23:29:23.389Z,4.10
2017-12-25T23:31:51.771Z,4.10
2017-12-25T23:34:20.137Z,4.10
2017-12-25T23:36:48.165Z,4.00
2017-12-25T23:39:16.643Z,4.00
2017-12-25T23:41:45.030Z,4.00
2017-12-25T23:44:13.586Z,4.00
2017-12-25T23:46:41.624Z,3.90
2017-12-25T23:49:09.973Z,3.80
2017-12-25T23:51:38.323Z,3.70
2017-12-25T23:54:06.743Z,3.70
2017-12-25T23:56:35.857Z,3.70
2017-12-25T23:59:04.316Z,3.80
